Time;durP1;ratioP1;P1;durP2;ratioP2;P2;SDS_P1;SDS_P2;PMS_P1;PMS_P2;Temp;Humidity;BMP_temperature;BMP_pressure;BME280_temperature;BME280_humidity;BME280_pressure;Samples;Min_cycle;Max_cycle;Signal;HPM_P1;HPM_P2
2022/02/15 00:02:19;;;;;;;;;;;;;;;15.84;42.79;99822.97;4932311;28;107514;-64
2022/02/15 00:04:45;;;;;;;;;;;;;;;15.82;42.68;99823.28;4938470;28;98597;-57
2022/02/15 00:07:10;;;;;;;;;;;;;;;15.82;42.94;99827.94;4939321;28;119961;-64
2022/02/15 00:09:36;;;;;;;;;;;;;;;15.82;42.90;99833.34;4939948;28;98448;-63
2022/02/15 00:12:02;;;;;;;;;;;;;;;15.81;43.04;99831.75;4943325;28;98778;-63
2022/02/15 00:14:28;;;;;;;;;;;;;;;15.80;43.21;99832.84;4943802;28;98925;-57
2022/02/15 00:16:55;;;;;;;;;;;;;;;15.79;43.11;99832.06;4941365;28;128520;-58
2022/02/15 00:19:21;;;;;;;;;;;;;;;15.77;42.93;99828.09;4941371;28;97941;-62
2022/02/15 00:21:47;;;;;;;;;;;;;;;15.78;42.93;99832.38;4942907;28;127774;-64
2022/02/15 00:24:13;;;;;;;;;;;;;;;15.77;43.30;99837.03;4942744;28;127376;-64
2022/02/15 00:26:39;;;;;;;;;;;;;;;15.76;43.28;99846.31;4942351;28;101679;-58
2022/02/15 00:29:05;;;;;;;;;;;;;;;15.76;43.47;99845.47;4937578;28;116503;-64
2022/02/15 00:31:31;;;;;;;;;;;;;;;15.74;43.56;99840.38;4922098;28;127943;-63
2022/02/15 00:33:57;;;;;;;;;;;;;;;15.74;43.42;99842.28;4923433;28;98143;-64
2022/02/15 00:36:23;;;;;;;;;;;;;;;15.71;43.50;99835.56;4901807;28;98350;-64
2022/02/15 00:38:49;;;;;;;;;;;;;;;15.71;43.38;99835.56;4923061;28;117854;-64
2022/02/15 00:41:15;;;;;;;;;;;;;;;15.71;43.46;99846.44;4921983;28;126347;-56
2022/02/15 00:43:41;;;;;;;;;;;;;;;15.68;43.69;99847.88;4922649;28;127519;-56
2022/02/15 00:46:07;;;;;;;;;;;;;;;15.68;43.42;99841.66;4923020;28;127322;-57
2022/02/15 00:48:33;;;;;;;;;;;;;;;15.67;43.48;99845.47;4932368;28;116789;-64
2022/02/15 00:50:59;;;;;;;;;;;;;;;15.66;43.73;99850.09;4922001;28;128005;-63
2022/02/15 00:53:24;;;;;;;;;;;;;;;15.66;43.95;99850.09;4922481;28;97964;-63
2022/02/15 00:55:50;;;;;;;;;;;;;;;15.65;43.76;99856.66;4922526;28;98595;-57
2022/02/15 00:58:16;;;;;;;;;;;;;;;15.65;44.00;99851.22;4934632;28;108474;-57
2022/02/15 01:00:42;;;;;;;;;;;;;;;15.65;43.87;99853.94;4922213;28;128016;-63
2022/02/15 01:03:08;;;;;;;;;;;;;;;15.65;43.84;99850.44;4920453;28;129644;-57
2022/02/15 01:05:34;;;;;;;;;;;;;;;15.65;44.12;99850.44;4921314;28;128081;-57
2022/02/15 01:08:00;;;;;;;;;;;;;;;15.64;43.73;99846.88;4922298;28;104991;-64
2022/02/15 01:10:26;;;;;;;;;;;;;;;15.63;43.75;99845.25;4953035;28;127496;-64
2022/02/15 01:12:53;;;;;;;;;;;;;;;15.63;44.02;99847.97;4932139;28;129280;-57
2022/02/15 01:15:19;;;;;;;;;;;;;;;15.63;43.94;99847.97;4942218;28;97945;-57
2022/02/15 01:17:45;;;;;;;;;;;;;;;15.63;43.84;99844.47;4941115;28;117526;-57
2022/02/15 01:20:12;;;;;;;;;;;;;;;15.61;44.06;99839.38;4942750;28;98933;-64
2022/02/15 01:22:38;;;;;;;;;;;;;;;15.63;43.82;99844.47;4927657;28;98632;-56
2022/02/15 01:25:04;;;;;;;;;;;;;;;15.61;43.86;99844.78;4922944;28;98318;-64
2022/02/15 01:27:30;;;;;;;;;;;;;;;15.62;44.14;99843.66;4922134;28;98486;-57
2022/02/15 01:29:56;;;;;;;;;;;;;;;15.61;44.01;99844.00;4922607;28;99011;-57
2022/02/15 01:32:22;;;;;;;;;;;;;;;15.60;44.02;99837.78;4920901;28;128869;-57
2022/02/15 01:34:48;;;;;;;;;;;;;;;15.59;44.19;99833.44;4921192;28;127160;-64
2022/02/15 01:37:14;;;;;;;;;;;;;;;15.60;43.89;99834.22;4922914;28;98092;-57
2022/02/15 01:39:40;;;;;;;;;;;;;;;15.60;44.48;99843.19;4921253;28;99121;-64
2022/02/15 01:42:07;;;;;;;;;;;;;;;15.59;44.25;99836.16;4920904;28;111645;-64
2022/02/15 01:44:35;;;;;;;;;;;;;;;15.60;44.04;99834.22;4922723;28;108473;-64
2022/02/15 01:47:04;;;;;;;;;;;;;;;15.58;43.89;99829.13;4922153;28;97976;-64
2022/02/15 01:49:29;;;;;;;;;;;;;;;15.57;44.15;99821.31;4959874;28;98972;-64
2022/02/15 01:51:55;;;;;;;;;;;;;;;15.58;44.25;99837.28;4939301;28;128310;-64
2022/02/15 01:54:21;;;;;;;;;;;;;;;15.58;44.00;99839.19;4943951;28;127847;-57
2022/02/15 01:56:47;;;;;;;;;;;;;;;15.57;44.07;99840.31;4941069;28;115696;-64
2022/02/15 01:59:13;;;;;;;;;;;;;;;15.57;44.04;99838.41;4941027;28;128779;-57
2022/02/15 02:01:39;;;;;;;;;;;;;;;15.57;44.30;99843.81;4925623;28;106142;-56
2022/02/15 02:05:47;;;;;;;;;;;;;;;15.57;44.08;99837.59;4926153;28;128376;-57
2022/02/15 02:06:51;;;;;;;;;;;;;;;15.57;43.99;99843.81;4921618;28;98341;-64
2022/02/15 02:09:17;;;;;;;;;;;;;;;15.57;44.22;99843.03;4920957;28;127733;-57
2022/02/15 02:11:43;;;;;;;;;;;;;;;15.57;44.29;99846.53;4920643;28;128768;-57
2022/02/15 02:14:10;;;;;;;;;;;;;;;15.56;44.01;99844.94;4921465;28;127858;-65
2022/02/15 02:16:36;;;;;;;;;;;;;;;15.57;44.05;99845.75;4920830;28;112424;-57
2022/02/15 02:19:01;;;;;;;;;;;;;;;15.56;44.31;99844.13;4940272;28;126206;-57
2022/02/15 02:21:37;;;;;;;;;;;;;;;15.56;44.15;99844.94;4939583;28;120086;-57
2022/02/15 02:24:04;;;;;;;;;;;;;;;15.55;44.14;99842.53;4902132;28;122472;-64
2022/02/15 02:26:30;;;;;;;;;;;;;;;15.54;44.21;99838.22;4902085;28;108440;-64
2022/02/15 02:28:56;;;;;;;;;;;;;;;15.54;44.19;99849.88;4919430;28;115841;-64
2022/02/15 02:31:22;;;;;;;;;;;;;;;15.53;44.30;99842.84;4922097;28;98406;-56
2022/02/15 02:33:48;;;;;;;;;;;;;;;15.53;44.16;99845.56;4921045;28;97807;-58
2022/02/15 02:36:14;;;;;;;;;;;;;;;15.52;43.99;99840.44;4920576;28;111539;-57
2022/02/15 02:38:40;;;;;;;;;;;;;;;15.52;44.45;99837.72;4938842;28;98695;-57
2022/02/15 02:41:06;;;;;;;;;;;;;;;15.52;43.95;99837.72;4940637;28;128516;-64
2022/02/15 02:43:32;;;;;;;;;;;;;;;15.51;44.27;99836.13;4940772;28;115365;-64
2022/02/15 02:45:58;;;;;;;;;;;;;;;15.51;44.09;99836.13;4925404;28;97788;-64
2022/02/15 02:48:24;;;;;;;;;;;;;;;15.49;44.16;99844.59;4921104;28;126085;-64
2022/02/15 02:50:50;;;;;;;;;;;;;;;15.51;44.31;99847.00;4920539;28;128632;-57
2022/02/15 02:53:17;;;;;;;;;;;;;;;15.51;44.48;99855.94;4934653;28;128536;-57
2022/02/15 02:55:43;;;;;;;;;;;;;;;15.50;44.20;99859.78;4941623;28;98074;-57
2022/02/15 02:58:08;;;;;;;;;;;;;;;15.50;44.03;99861.69;4937901;28;129336;-64
2022/02/15 03:00:34;;;;;;;;;;;;;;;15.50;44.03;99865.22;4931589;28;126778;-64
2022/02/15 03:03:07;;;;;;;;;;;;;;;15.51;43.96;99872.22;4921050;28;98280;-57
2022/02/15 03:05:33;;;;;;;;;;;;;;;15.51;44.00;99876.88;4921130;28;97854;-57
2022/02/15 03:07:59;;;;;;;;;;;;;;;15.49;44.33;99874.47;4924360;28;122426;-65
2022/02/15 03:10:25;;;;;;;;;;;;;;;15.51;44.09;99874.94;4920965;28;107149;-57
2022/02/15 03:12:51;;;;;;;;;;;;;;;15.52;44.26;99875.75;4929781;28;98525;-64
2022/02/15 03:15:17;;;;;;;;;;;;;;;15.52;44.22;99886.59;4939538;28;115888;-57
2022/02/15 03:17:43;;;;;;;;;;;;;;;15.52;44.24;99889.31;4940261;28;98678;-64
2022/02/15 03:20:09;;;;;;;;;;;;;;;15.53;44.37;99888.22;4939377;28;123123;-64
2022/02/15 03:22:36;;;;;;;;;;;;;;;15.53;44.22;99896.38;4940917;28;98005;-64
2022/02/15 03:25:02;;;;;;;;;;;;;;;15.53;44.03;99886.31;4964062;27;110520;-64
2022/02/15 03:27:28;;;;;;;;;;;;;;;15.53;44.18;99886.31;4940500;28;100118;-57
2022/02/15 03:29:54;;;;;;;;;;;;;;;15.53;44.30;99893.66;4940254;28;114138;-64
2022/02/15 03:32:20;;;;;;;;;;;;;;;15.54;44.17;99896.06;4939725;28;113893;-64
2022/02/15 03:34:46;;;;;;;;;;;;;;;15.54;44.10;99890.63;4939882;28;117501;-57
2022/02/15 03:37:12;;;;;;;;;;;;;;;15.54;44.53;99890.63;4940093;28;98571;-64
2022/02/15 03:39:38;;;;;;;;;;;;;;;15.55;44.39;99894.13;4939426;28;97986;-57
2022/02/15 03:44:49;;;;;;;;;;;;;;;15.55;44.48;99905.00;4918770;28;98065;-64
2022/02/15 03:47:15;;;;;;;;;;;;;;;15.54;44.57;99900.69;4930078;28;98611;-56
2022/02/15 03:49:41;;;;;;;;;;;;;;;15.54;44.27;99917.00;4941849;28;129355;-57
2022/02/15 03:52:07;;;;;;;;;;;;;;;15.53;44.08;99913.47;4942582;28;126788;-64
2022/02/15 03:54:33;;;;;;;;;;;;;;;15.53;44.28;99910.75;4944086;28;98234;-56
2022/02/15 03:56:59;;;;;;;;;;;;;;;15.54;44.28;99903.41;4941706;28;128261;-63
2022/02/15 03:59:25;;;;;;;;;;;;;;;15.53;44.37;99904.53;4943768;28;98153;-57
2022/02/15 04:01:51;;;;;;;;;;;;;;;15.54;44.43;99911.56;4939966;28;128460;-64
2022/02/15 04:04:16;;;;;;;;;;;;;;;15.54;44.29;99917.78;4942298;28;117255;-64
2022/02/15 04:06:42;;;;;;;;;;;;;;;15.54;44.59;99919.69;4942765;28;109200;-64
2022/02/15 04:09:08;;;;;;;;;;;;;;;15.54;44.54;99920.50;4926835;28;128052;-57
2022/02/15 04:11:35;;;;;;;;;;;;;;;15.54;44.17;99923.22;4922729;28;126380;-57
2022/02/15 04:14:01;;;;;;;;;;;;;;;15.54;44.43;99922.41;4939390;28;97963;-57
2022/02/15 04:16:27;;;;;;;;;;;;;;;15.53;44.45;99918.91;4942347;28;125411;-64
2022/02/15 04:18:53;;;;;;;;;;;;;;;15.54;44.57;99923.22;4942555;28;128435;-64
2022/02/15 04:21:23;;;;;;;;;;;;;;;15.54;44.59;99930.56;4943785;28;98020;-64
2022/02/15 04:23:50;;;;;;;;;;;;;;;15.54;44.50;99925.13;4943081;28;97915;-58
2022/02/15 04:26:16;;;;;;;;;;;;;;;15.53;44.69;99932.50;4943056;28;98235;-64
2022/02/15 04:28:42;;;;;;;;;;;;;;;15.54;44.63;99933.28;4941921;28;121445;-57
2022/02/15 04:31:08;;;;;;;;;;;;;;;15.54;44.60;99942.22;4943707;28;98163;-57
2022/02/15 04:33:34;;;;;;;;;;;;;;;15.54;44.39;99941.44;4943780;28;97975;-64
2022/02/15 04:36:00;;;;;;;;;;;;;;;15.54;44.39;99942.22;4933880;28;98287;-64
2022/02/15 04:38:26;;;;;;;;;;;;;;;15.54;44.37;99941.44;4923506;28;103831;-56
2022/02/15 04:40:52;;;;;;;;;;;;;;;15.53;44.40;99943.34;4922016;28;126939;-57
2022/02/15 04:43:17;;;;;;;;;;;;;;;15.54;44.51;99942.22;4923831;28;97714;-64
2022/02/15 04:45:43;;;;;;;;;;;;;;;15.54;44.66;99939.50;4923837;28;116551;-57
2022/02/15 04:48:09;;;;;;;;;;;;;;;15.54;44.50;99939.50;4936237;28;103966;-57
2022/02/15 04:50:36;;;;;;;;;;;;;;;15.54;44.65;99942.22;4941673;28;126883;-63
2022/02/15 04:53:01;;;;;;;;;;;;;;;15.54;44.74;99944.94;4931084;28;97768;-64
2022/02/15 04:55:27;;;;;;;;;;;;;;;15.54;44.68;99947.66;4922297;28;126189;-57
2022/02/15 04:57:53;;;;;;;;;;;;;;;15.55;44.65;99951.97;4922240;28;128534;-64
2022/02/15 05:00:19;;;;;;;;;;;;;;;15.54;44.86;99950.38;4923283;28;128493;-57
2022/02/15 05:02:45;;;;;;;;;;;;;;;15.54;44.83;99953.09;4924749;28;97909;-57
2022/02/15 05:05:11;;;;;;;;;;;;;;;15.54;44.67;99950.38;4941983;28;125636;-64
2022/02/15 05:07:37;;;;;;;;;;;;;;;15.55;44.75;99948.47;4939626;28;126261;-57
2022/02/15 05:10:04;;;;;;;;;;;;;;;15.54;44.46;99950.38;4966028;28;98503;-57
2022/02/15 05:12:32;;;;;;;;;;;;;;;15.54;44.71;99953.09;4938944;28;97786;-57
2022/02/15 05:14:58;;;;;;;;;;;;;;;15.54;44.52;99949.59;4922782;28;98215;-57
2022/02/15 05:17:25;;;;;;;;;;;;;;;15.55;45.08;99962.03;4925020;28;128221;-57
2022/02/15 05:19:52;;;;;;;;;;;;;;;15.55;44.87;99959.31;4930652;28;97949;-57
2022/02/15 05:22:18;;;;;;;;;;;;;;;15.55;44.61;99972.91;4921933;28;110857;-64
2022/02/15 05:24:43;;;;;;;;;;;;;;;15.55;44.77;99971.00;4921770;28;117699;-57
2022/02/15 05:27:09;;;;;;;;;;;;;;;15.56;44.95;99974.50;4923536;28;98440;-64
2022/02/15 05:29:37;;;;;;;;;;;;;;;15.56;44.56;99974.50;4922471;28;97963;-58
2022/02/15 05:32:03;;;;;;;;;;;;;;;15.55;44.65;99975.63;4936151;28;97992;-64
2022/02/15 05:34:29;;;;;;;;;;;;;;;15.55;44.86;99978.34;4928128;28;99213;-63
2022/02/15 05:36:55;;;;;;;;;;;;;;;15.55;44.89;99972.91;4920296;28;126886;-64
2022/02/15 05:39:21;;;;;;;;;;;;;;;15.55;44.85;99975.63;4931146;28;98082;-64
2022/02/15 05:41:47;;;;;;;;;;;;;;;15.55;44.70;99971.00;4938633;28;98207;-63
2022/02/15 05:44:14;;;;;;;;;;;;;;;15.55;44.73;99978.34;4938756;28;98780;-64
2022/02/15 05:46:40;;;;;;;;;;;;;;;15.55;44.91;99976.41;4936999;28;98634;-64
2022/02/15 05:49:07;;;;;;;;;;;;;;;15.55;44.64;99981.84;4939673;28;97996;-64
2022/02/15 05:51:33;;;;;;;;;;;;;;;15.56;44.89;99985.38;4937598;28;97855;-64
2022/02/15 05:53:59;;;;;;;;;;;;;;;15.55;45.15;99991.91;4935425;28;117695;-64
2022/02/15 05:56:25;;;;;;;;;;;;;;;15.55;44.95;99987.28;4934808;28;98603;-65
2022/02/15 05:58:51;;;;;;;;;;;;;;;15.55;44.79;99992.72;4927217;28;121582;-64
2022/02/15 06:01:17;;;;;;;;;;;;;;;15.55;45.00;99989.19;4932900;28;104837;-64
2022/02/15 06:06:27;;;;;;;;;;;;;;;15.54;44.87;100012.84;4940478;28;97999;-64
2022/02/15 06:08:53;;;;;;;;;;;;;;;15.55;45.04;100009.00;4938577;28;112823;-64
2022/02/15 06:11:19;;;;;;;;;;;;;;;15.55;45.02;100010.94;4941233;28;97820;-64
2022/02/15 06:13:45;;;;;;;;;;;;;;;15.53;45.05;100016.69;4940999;28;113430;-64
2022/02/15 06:16:11;;;;;;;;;;;;;;;15.54;45.15;100014.78;4942307;28;98626;-64
2022/02/15 06:18:37;;;;;;;;;;;;;;;15.53;44.80;100022.13;4940900;28;97826;-64
2022/02/15 06:21:03;;;;;;;;;;;;;;;15.52;44.77;100020.50;4940950;28;102629;-64
2022/02/15 06:23:29;;;;;;;;;;;;;;;15.54;45.09;100028.34;4928185;28;119489;-64
2022/02/15 06:25:55;;;;;;;;;;;;;;;15.53;45.19;100030.28;4921300;28;98609;-64
2022/02/15 06:28:21;;;;;;;;;;;;;;;15.53;45.12;100040.34;4926320;28;117170;-64
2022/02/15 06:30:47;;;;;;;;;;;;;;;15.53;45.10;100040.34;4921554;28;98007;-64
2022/02/15 06:33:13;;;;;;;;;;;;;;;15.53;45.12;100040.34;4935507;28;99452;-57
2022/02/15 06:35:39;;;;;;;;;;;;;;;15.53;44.82;100045.78;4940384;28;121979;-57
2022/02/15 06:38:05;;;;;;;;;;;;;;;15.53;45.25;100041.13;4940808;28;97968;-57
2022/02/15 06:40:31;;;;;;;;;;;;;;;15.54;45.20;100047.38;4941867;28;97981;-57
2022/02/15 06:42:57;;;;;;;;;;;;;;;15.54;44.81;100042.72;4940061;28;126906;-57
2022/02/15 06:45:23;;;;;;;;;;;;;;;15.54;45.22;100045.44;4941348;28;98664;-64
2022/02/15 06:47:49;;;;;;;;;;;;;;;15.54;44.96;100050.88;4941830;28;97909;-57
2022/02/15 06:50:15;;;;;;;;;;;;;;;15.55;45.05;100054.41;4939918;28;105751;-64
2022/02/15 06:52:41;;;;;;;;;;;;;;;15.55;44.99;100057.09;4930444;28;129370;-64
2022/02/15 06:55:08;;;;;;;;;;;;;;;15.55;45.10;100068.78;4935115;28;98776;-64
2022/02/15 06:57:34;;;;;;;;;;;;;;;15.55;45.18;100068.78;4932013;28;98109;-64
2022/02/15 07:00:00;;;;;;;;;;;;;;;15.55;45.44;100079.63;4921529;28;97988;-64
2022/02/15 07:02:26;;;;;;;;;;;;;;;15.57;45.40;100079.34;4928067;28;128697;-64
2022/02/15 07:04:53;;;;;;;;;;;;;;;15.58;45.02;100080.94;4940856;28;98293;-64
2022/02/15 07:07:19;;;;;;;;;;;;;;;15.59;45.34;100085.25;4933274;28;100024;-64
2022/02/15 07:09:44;;;;;;;;;;;;;;;15.62;45.14;100081.94;4920550;28;117695;-64
2022/02/15 07:12:10;;;;;;;;;;;;;;;15.65;44.95;100090.28;4920034;28;128148;-64
2022/02/15 07:14:36;;;;;;;;;;;;;;;15.70;45.02;100094.78;4920414;28;126706;-64
2022/02/15 07:17:03;;;;;;;;;;;;;;;15.77;45.12;100102.50;4920533;28;99765;-64
2022/02/15 07:19:32;;;;;;;;;;;;;;;15.83;45.34;100098.53;4919732;28;103674;-64
2022/02/15 07:21:59;;;;;;;;;;;;;;;15.88;45.34;100104.66;4926559;28;98471;-64
2022/02/15 07:24:25;;;;;;;;;;;;;;;15.91;44.99;100103.22;4939619;28;101451;-64
2022/02/15 07:26:51;;;;;;;;;;;;;;;15.95;45.22;100102.31;4938067;28;98128;-64
2022/02/15 07:29:17;;;;;;;;;;;;;;;15.98;45.04;100098.16;4922220;28;118456;-64
2022/02/15 07:31:42;;;;;;;;;;;;;;;16.02;45.28;100103.75;4920823;28;97787;-63
2022/02/15 07:34:08;;;;;;;;;;;;;;;16.06;45.11;100110.19;4919941;28;126461;-64
2022/02/15 07:36:34;;;;;;;;;;;;;;;16.14;45.21;100112.94;4921451;28;116478;-64
2022/02/15 07:39:00;;;;;;;;;;;;;;;16.21;45.30;100107.06;4940308;28;117418;-66
2022/02/15 07:41:30;;;;;;;;;;;;;;;16.34;45.10;100111.56;4940099;28;109918;-64
2022/02/15 07:43:56;;;;;;;;;;;;;;;16.50;45.03;100117.41;4939140;28;98084;-64
2022/02/15 07:46:23;;;;;;;;;;;;;;;16.62;44.98;100116.78;4940526;28;98896;-65
2022/02/15 07:48:49;;;;;;;;;;;;;;;16.83;44.41;100117.06;4938857;28;97897;-64
2022/02/15 07:51:16;;;;;;;;;;;;;;;17.05;44.23;100125.06;4920018;28;98386;-64
2022/02/15 07:53:42;;;;;;;;;;;;;;;17.18;44.22;100115.97;4920929;28;108555;-64
2022/02/15 07:56:07;;;;;;;;;;;;;;;17.35;44.09;100122.53;4918710;28;128228;-64
2022/02/15 07:58:33;;;;;;;;;;;;;;;17.58;43.98;100126.69;4919734;28;98493;-64
2022/02/15 08:00:59;;;;;;;;;;;;;;;17.86;43.75;100118.97;4920654;28;128798;-63
2022/02/15 08:03:25;;;;;;;;;;;;;;;18.18;43.53;100121.47;4932023;28;98249;-64
2022/02/15 08:05:51;;;;;;;;;;;;;;;18.54;43.27;100123.72;4938650;28;126364;-64
2022/02/15 08:08:17;;;;;;;;;;;;;;;18.78;43.09;100129.38;4963591;28;116216;-65
2022/02/15 08:10:44;;;;;;;;;;;;;;;19.09;42.79;100133.69;4939144;28;98648;-64
2022/02/15 08:13:10;;;;;;;;;;;;;;;19.43;42.99;100129.91;4926968;28;98323;-64
2022/02/15 08:15:40;;;;;;;;;;;;;;;19.79;42.35;100140.22;4919272;28;127248;-64
2022/02/15 08:18:06;;;;;;;;;;;;;;;20.30;42.14;100135.31;4933361;28;98283;-65
2022/02/15 08:20:33;;;;;;;;;;;;;;;20.71;41.81;100133.53;4939389;28;126855;-64
2022/02/15 08:22:59;;;;;;;;;;;;;;;21.07;41.69;100140.13;4924297;28;98998;-65
2022/02/15 08:25:25;;;;;;;;;;;;;;;21.41;41.56;100135.25;4919903;28;102633;-65
2022/02/15 08:27:50;;;;;;;;;;;;;;;21.59;41.63;100139.31;4920768;28;97816;-64
2022/02/15 08:30:16;;;;;;;;;;;;;;;22.02;41.23;100144.00;4919773;28;119077;-65
2022/02/15 08:32:42;;;;;;;;;;;;;;;22.42;40.97;100147.78;4926514;28;128630;-64
2022/02/15 08:35:09;;;;;;;;;;;;;;;22.86;40.74;100150.38;4929005;28;127347;-58
2022/02/15 08:37:35;;;;;;;;;;;;;;;23.28;40.50;100158.81;4923222;28;98265;-58
2022/02/15 08:40:05;;;;;;;;;;;;;;;23.71;40.61;100149.50;4925512;28;117159;-64
2022/02/15 08:42:30;;;;;;;;;;;;;;;24.19;40.29;100160.22;4923110;28;104003;-65
2022/02/15 08:44:56;;;;;;;;;;;;;;;24.60;40.03;100161.34;4933180;28;127775;-65
2022/02/15 08:47:22;;;;;;;;;;;;;;;25.03;39.84;100164.72;4923971;28;117314;-65
2022/02/15 08:49:52;;;;;;;;;;;;;;;25.45;39.75;100159.00;4922350;28;128472;-58
2022/02/15 08:52:23;;;;;;;;;;;;;;;25.89;39.85;100169.41;4959756;28;99332;-58
2022/02/15 08:54:52;;;;;;;;;;;;;;;26.32;39.57;100161.53;4942531;28;98102;-58
2022/02/15 08:57:18;;;;;;;;;;;;;;;26.71;39.35;100163.88;4943856;28;97969;-64
2022/02/15 08:59:44;;;;;;;;;;;;;;;26.95;39.43;100161.66;4941298;28;128025;-65
2022/02/15 09:02:10;;;;;;;;;;;;;;;27.20;39.20;100161.84;4940691;28;127717;-64
2022/02/15 09:04:36;;;;;;;;;;;;;;;27.41;39.32;100159.16;4941186;28;128547;-64
2022/02/15 09:07:03;;;;;;;;;;;;;;;27.73;38.99;100153.75;4943897;28;97935;-58
2022/02/15 09:09:29;;;;;;;;;;;;;;;27.92;38.81;100154.63;4942120;28;98265;-65
2022/02/15 09:11:55;;;;;;;;;;;;;;;28.16;38.75;100155.84;4940517;28;127933;-58
2022/02/15 09:14:21;;;;;;;;;;;;;;;28.40;38.79;100151.53;4922622;28;125157;-65
2022/02/15 09:16:47;;;;;;;;;;;;;;;28.84;38.11;100149.09;4922878;28;115529;-58
2022/02/15 09:19:13;;;;;;;;;;;;;;;29.21;38.11;100156.19;4923469;28;98678;-65
2022/02/15 09:21:39;;;;;;;;;;;;;;;29.54;37.66;100152.06;4921153;28;127244;-58
2022/02/15 09:24:06;;;;;;;;;;;;;;;29.83;37.95;100151.97;4937167;28;98114;-58
2022/02/15 09:26:32;;;;;;;;;;;;;;;30.12;37.38;100147.00;4942453;28;99534;-66
2022/02/15 09:28:58;;;;;;;;;;;;;;;30.46;37.11;100152.75;4922014;28;123189;-58
2022/02/15 09:31:24;;;;;;;;;;;;;;;30.75;37.03;100156.06;4939505;28;97847;-65
2022/02/15 09:33:52;;;;;;;;;;;;;;;30.90;37.04;100161.50;4941240;28;98731;-59
2022/02/15 09:36:21;;;;;;;;;;;;;;;31.14;36.71;100163.22;4943265;28;98089;-58
2022/02/15 09:38:47;;;;;;;;;;;;;;;31.43;36.44;100163.69;4942635;28;97814;-66
2022/02/15 09:41:13;;;;;;;;;;;;;;;31.70;36.04;100169.31;4932963;28;98993;-66
2022/02/15 09:43:39;;;;;;;;;;;;;;;31.91;36.07;100173.03;4922263;28;98396;-58
2022/02/15 09:46:08;;;;;;;;;;;;;;;32.25;35.51;100162.53;4922516;28;97800;-65
2022/02/15 09:48:34;;;;;;;;;;;;;;;32.61;35.62;100164.78;4923349;28;99062;-66
2022/02/15 09:51:00;;;;;;;;;;;;;;;32.92;35.34;100173.00;4921150;28;122945;-59
2022/02/15 09:53:26;;;;;;;;;;;;;;;33.30;34.66;100175.50;4918642;28;127195;-58
2022/02/15 09:55:52;;;;;;;;;;;;;;;33.72;34.56;100171.84;4923507;28;98022;-59
2022/02/15 09:58:18;;;;;;;;;;;;;;;34.10;34.25;100165.00;4940477;28;126340;-59
2022/02/15 10:00:44;;;;;;;;;;;;;;;34.52;33.47;100168.81;4940560;28;129607;-58
2022/02/15 10:03:10;;;;;;;;;;;;;;;35.03;33.36;100165.50;4942539;28;97763;-66
2022/02/15 10:05:37;;;;;;;;;;;;;;;35.59;32.68;100171.47;4941363;28;97814;-59
2022/02/15 10:08:03;;;;;;;;;;;;;;;36.16;32.13;100165.34;4935426;28;99105;-66
2022/02/15 10:10:29;;;;;;;;;;;;;;;36.64;31.46;100166.22;4920723;28;117906;-60
2022/02/15 10:12:59;;;;;;;;;;;;;;;37.02;31.34;100171.69;4925281;28;98418;-58
2022/02/15 10:15:29;;;;;;;;;;;;;;;37.46;30.89;100166.09;4941752;28;97659;-67
2022/02/15 10:18:14;;;;;;;;;;;;;;;38.06;29.67;100174.19;4941185;28;98137;-60
2022/02/15 10:20:46;;;;;;;;;;;;;;;37.99;30.37;100175.25;4941524;28;97677;-64
2022/02/15 10:23:17;;;;;;;;;;;;;;;38.41;29.62;100159.94;4941545;28;98279;-56
2022/02/15 10:25:43;;;;;;;;;;;;;;;38.17;29.87;100173.78;4941408;28;97884;-64
2022/02/15 10:28:15;;;;;;;;;;;;;;;37.85;29.67;100173.00;4941387;28;99029;-64
2022/02/15 10:30:45;;;;;;;;;;;;;;;37.30;30.41;100165.03;4941058;28;98165;-63
2022/02/15 10:33:11;;;;;;;;;;;;;;;36.93;30.52;100174.41;4942078;28;97772;-64
2022/02/15 10:35:40;;;;;;;;;;;;;;;37.50;29.77;100169.56;4936633;28;97845;-64
2022/02/15 10:38:06;;;;;;;;;;;;;;;38.13;28.85;100170.31;4921666;28;98984;-64
2022/02/15 10:40:34;;;;;;;;;;;;;;;38.54;28.72;100166.22;4935445;28;97905;-64
2022/02/15 10:43:00;;;;;;;;;;;;;;;39.10;28.25;100167.78;4922478;28;98056;-64
2022/02/15 10:45:29;;;;;;;;;;;;;;;39.58;27.51;100170.88;4919743;28;117910;-64
2022/02/15 10:47:59;;;;;;;;;;;;;;;39.94;27.20;100169.97;4922912;28;99549;-64
2022/02/15 10:50:25;;;;;;;;;;;;;;;40.31;26.54;100160.53;4912889;28;107313;-64
2022/02/15 10:52:52;;;;;;;;;;;;;;;40.34;26.51;100157.53;4932279;28;125608;-64
2022/02/15 10:55:18;;;;;;;;;;;;;;;40.39;26.21;100154.06;4941900;28;97979;-64
2022/02/15 10:57:44;;;;;;;;;;;;;;;40.42;26.46;100166.44;4940472;28;106136;-64
2022/02/15 11:00:11;;;;;;;;;;;;;;;40.22;26.39;100164.22;4938281;28;127747;-65
2022/02/15 11:02:40;;;;;;;;;;;;;;;40.09;26.48;100166.44;4940129;28;99244;-64
2022/02/15 11:05:08;;;;;;;;;;;;;;;40.13;26.05;100153.75;4940529;28;97914;-64
2022/02/15 11:07:36;;;;;;;;;;;;;;;40.08;26.08;100148.72;4920012;28;98589;-57
2022/02/15 11:10:20;;;;;;;;;;;;;;;39.83;26.07;100147.16;4921396;28;98372;-56
2022/02/15 11:12:55;;;;;;;;;;;;;;;39.43;26.32;100139.75;4945859;28;97923;-57
2022/02/15 11:15:23;;;;;;;;;;;;;;;38.91;26.67;100135.25;4922913;28;98004;-64
2022/02/15 11:17:53;;;;;;;;;;;;;;;38.21;27.18;100133.00;4939722;28;100206;-64
2022/02/15 11:20:22;;;;;;;;;;;;;;;37.39;27.84;100150.25;4940495;28;99203;-56
2022/02/15 11:22:53;;;;;;;;;;;;;;;35.84;28.92;100139.91;4941295;28;98129;-64
2022/02/15 11:25:30;;;;;;;;;;;;;;;35.80;28.82;100133.59;4945245;28;97929;-56
2022/02/15 11:27:56;;;;;;;;;;;;;;;35.21;29.42;100134.19;4939443;28;98098;-64
2022/02/15 11:30:28;;;;;;;;;;;;;;;34.37;30.15;100126.38;4940601;28;100874;-64
2022/02/15 11:32:54;;;;;;;;;;;;;;;33.61;30.57;100129.38;4922756;28;98130;-64
2022/02/15 11:35:20;;;;;;;;;;;;;;;32.65;31.22;100137.59;4939823;28;97692;-56
2022/02/15 11:37:46;;;;;;;;;;;;;;;31.86;31.56;100137.28;4929176;28;127597;-64
2022/02/15 11:40:13;;;;;;;;;;;;;;;31.23;31.75;100144.00;4940438;28;127977;-63
2022/02/15 11:42:47;;;;;;;;;;;;;;;30.71;31.99;100146.16;4920961;28;97904;-63
2022/02/15 11:45:27;;;;;;;;;;;;;;;30.14;32.20;100135.47;4938914;28;97822;-56
2022/02/15 11:48:04;;;;;;;;;;;;;;;29.51;32.55;100139.00;4937442;28;98417;-55
2022/02/15 11:50:41;;;;;;;;;;;;;;;29.22;32.66;100138.34;4900188;28;121156;-55
2022/02/15 11:53:07;;;;;;;;;;;;;;;28.75;32.89;100142.41;4927501;28;98414;-55
2022/02/15 11:55:34;;;;;;;;;;;;;;;28.66;33.24;100140.03;4922410;28;117889;-56
2022/02/15 11:58:00;;;;;;;;;;;;;;;28.33;33.05;100146.72;4921311;28;97696;-63
2022/02/15 12:00:33;;;;;;;;;;;;;;;27.84;33.39;100149.06;4918973;28;99136;-63
2022/02/15 12:02:59;;;;;;;;;;;;;;;27.48;33.98;100158.41;4922017;28;98083;-56
2022/02/15 12:05:26;;;;;;;;;;;;;;;27.09;34.23;100150.69;4920010;28;116662;-63
2022/02/15 12:07:54;;;;;;;;;;;;;;;26.88;34.47;100146.63;4931615;28;98906;-56
2022/02/15 12:10:20;;;;;;;;;;;;;;;26.52;34.42;100153.06;4934288;28;98947;-57
2022/02/15 12:12:47;;;;;;;;;;;;;;;26.18;34.52;100155.91;4923188;28;128740;-63
2022/02/15 12:15:13;;;;;;;;;;;;;;;25.94;34.72;100147.00;4924317;28;98150;-55
2022/02/15 12:17:46;;;;;;;;;;;;;;;25.75;34.85;100151.88;4923435;28;120967;-55
2022/02/15 12:20:17;;;;;;;;;;;;;;;25.46;34.98;100152.31;4924809;28;98358;-62
2022/02/15 12:22:44;;;;;;;;;;;;;;;25.19;35.30;100156.31;4925053;28;98046;-55
2022/02/15 12:25:10;;;;;;;;;;;;;;;24.94;35.42;100155.94;4924366;28;97700;-55
2022/02/15 12:27:44;;;;;;;;;;;;;;;24.73;35.63;100156.41;4923792;28;98317;-58
2022/02/15 12:30:13;;;;;;;;;;;;;;;24.59;35.53;100151.47;4924461;28;98936;-65
2022/02/15 12:32:40;;;;;;;;;;;;;;;24.50;35.49;100150.94;4923845;28;98285;-65
2022/02/15 12:35:07;;;;;;;;;;;;;;;24.41;35.80;100145.69;4924136;28;98079;-65
2022/02/15 12:37:33;;;;;;;;;;;;;;;24.30;35.85;100152.16;4922656;28;125032;-59
2022/02/15 12:40:00;;;;;;;;;;;;;;;24.14;36.13;100153.06;4923090;28;123076;-65